Buckley Air Force Base
KBKF : now visible

Airfield :











YOU CAN JOIN US ON...

 
LOGIN :

Register | Disclaimer

   EN    FR    IT 

 









Legend :    VFR   Marginal VFR   IFR   Intensive IFR   Very Intensive IFR
Visi :
Ceiling :
>= 8 km
>= 3000ft
5 to 8 km
1000 to 3000 ft
1500m to 5 km
500 to 1000 ft
800 to 1500m
200 to 500 ft
< 800m
< 200 ft
Symbols :   Thunderstorms  Fog  Heavy snow  Heavy precipitations  Wind > 20 kt






- Airport Elevation : 5662 ft


KBKF - Buckley Air Force Base

CURRENT METAR :
  • 160958Z 35010KT 2SM -SN BR OVC005 M03/M03 A3007 RMK AO2A SLP194 P0002 T10311031

EXPIRED METARs :
  • 160858Z 36009KT 2SM -SN BR OVC006 M03/M03 A3006 RMK AO2A SLP190 P0001 60004 T10301030 52003
  • 160758Z 01010KT 2SM -SN BR OVC005 M03/M03 A3005 RMK AO2A SLP187 P0001 T10261026

TAF TAF KBKF
Valid from the 16 at 09:00 until the 17 at 15:00 UTC


160900Z 1609/1715 35009KT 4800 SN BR OVC005 650059 QNH3001INS
BECMG 1620/1621 35009KT 9999 NSW SCT009 OVC030 650309 QNH3014INS
BECMG 1703/1704 VRB06KT 4800 -SN OVC010 650109 QNH3021INS TX01/1623Z TNM04/1614Z
KZDV FIR / North America



MET'MAP, your aeronautical weather chart ! - Copyright ORBIFLY December 2007 - Disclaimer

ORBIFLY MET'MAP TEAM :

Programming & Development : Alexandra Zaïnal
Concept & original design : Baudouin d'Aumeries
Assistance for programming : Marc-Olivier Méhu
Technical & hardware support : Manuel Goepfert

Contact : metmap@orbifly.com




SOURCES & CREDITS :

   NOAA       Earth
Advisory